Powersville, Georgia
Current Conditions -  °F | °C
As of 7:53 PM on Thursday 27 Nov 2014 (Local Time) from KMCN Reporting Station
Clear Clear  
Wind Chill: 35°   Ceiling: Unl
Heat Index: 40°   Visibility: 10mi
Dew Point: 27°   Wind: 7mph
Humidity: 60%   Direction: 330°NNW
Pressure: 30.35"   Gusts: NA
Location:  32.6425°N, 83.775°W
Report Text: KMCN 280053Z AUTO 33006KT 10SM CLR 04/M03 A3035 RMK AO2 SLP277 T00441028 TSNO
Loading
Personal Weather Stations






























Interactive Weather Map New forecast layout! Learn more

10-Day Weather Forecast

Advertisements
Track Severe Weather on mobile